createdAt,value
2018-12-31T00:00:23.282Z,5.30
2018-12-31T00:02:55.945Z,5.30
2018-12-31T00:05:26.706Z,5.32
2018-12-31T00:07:57.700Z,5.36
2018-12-31T00:10:28.492Z,5.39
2018-12-31T00:12:59.484Z,5.44
2018-12-31T00:15:30.315Z,5.38
2018-12-31T00:18:01.328Z,5.44
2018-12-31T00:20:51.571Z,5.39
2018-12-31T00:26:26.931Z,5.34
2018-12-31T00:28:57.709Z,5.45
2018-12-31T00:31:28.468Z,5.39
2018-12-31T00:33:59.350Z,5.44
2018-12-31T00:36:49.607Z,5.45
2018-12-31T00:39:20.652Z,5.45
2018-12-31T00:42:29.705Z,5.45
2018-12-31T00:45:00.961Z,5.42
2018-12-31T00:47:33.035Z,5.54
2018-12-31T00:50:04.838Z,5.46
2018-12-31T00:52:36.110Z,5.44
2018-12-31T00:55:07.055Z,5.42
2018-12-31T00:57:38.053Z,5.43
2018-12-31T01:00:09.115Z,5.40
2018-12-31T01:02:39.956Z,5.43
2018-12-31T01:05:10.704Z,5.44
2018-12-31T01:07:41.711Z,5.48
2018-12-31T01:10:12.846Z,5.50
2018-12-31T01:12:44.048Z,5.56
2018-12-31T01:15:14.819Z,5.52
2018-12-31T01:17:45.843Z,5.48
2018-12-31T01:20:16.621Z,5.46
2018-12-31T01:22:47.885Z,5.47
2018-12-31T01:25:18.899Z,5.38
2018-12-31T01:27:49.700Z,5.44
2018-12-31T01:30:20.726Z,5.35
2018-12-31T01:32:52.803Z,5.47
2018-12-31T01:35:23.580Z,5.45
2018-12-31T01:37:54.675Z,5.41
2018-12-31T01:40:26.746Z,5.42
2018-12-31T01:42:57.785Z,5.39
2018-12-31T01:45:28.807Z,5.41
2018-12-31T01:47:59.822Z,5.43
2018-12-31T01:50:30.617Z,5.38
2018-12-31T01:53:01.647Z,5.38
2018-12-31T01:55:32.664Z,5.33
2018-12-31T01:58:03.454Z,5.19
2018-12-31T02:00:34.560Z,5.33
2018-12-31T02:03:05.758Z,5.41
2018-12-31T02:05:36.740Z,5.42
2018-12-31T02:08:07.768Z,5.38
2018-12-31T02:10:38.778Z,5.44
2018-12-31T02:13:09.815Z,5.36
2018-12-31T02:15:40.890Z,5.38
2018-12-31T02:18:12.091Z,5.29
2018-12-31T02:20:42.955Z,5.35
2018-12-31T02:23:14.135Z,5.42
2018-12-31T02:25:44.910Z,5.34
2018-12-31T02:28:15.925Z,5.28
2018-12-31T02:30:47.445Z,5.38
2018-12-31T02:33:18.543Z,5.45
2018-12-31T02:35:49.627Z,5.49
2018-12-31T02:38:20.424Z,5.47
2018-12-31T02:40:51.427Z,5.46
2018-12-31T02:43:22.557Z,5.44
2018-12-31T02:45:53.416Z,5.39
2018-12-31T02:48:24.473Z,5.41
2018-12-31T02:50:55.319Z,5.42
2018-12-31T02:53:26.116Z,5.38
2018-12-31T02:55:57.145Z,5.40
2018-12-31T02:58:28.018Z,5.41
2018-12-31T03:00:59.039Z,5.42
2018-12-31T03:03:29.890Z,5.38
2018-12-31T03:06:01.946Z,5.41
2018-12-31T03:08:32.874Z,5.37
2018-12-31T03:11:04.358Z,5.37
2018-12-31T03:13:35.430Z,5.43
2018-12-31T03:16:06.303Z,5.42
2018-12-31T03:18:37.600Z,5.41
2018-12-31T03:21:08.877Z,5.46
2018-12-31T03:23:39.893Z,5.43
2018-12-31T03:26:10.915Z,5.46
2018-12-31T03:28:41.981Z,5.49
2018-12-31T03:31:12.845Z,5.47
2018-12-31T03:33:43.864Z,5.54
2018-12-31T03:36:14.982Z,5.56
2018-12-31T03:38:45.763Z,5.54
2018-12-31T03:41:17.071Z,5.50
2018-12-31T03:43:48.100Z,5.56
2018-12-31T03:46:18.965Z,5.58
2018-12-31T03:48:50.219Z,5.60
2018-12-31T03:51:21.076Z,5.55
2018-12-31T03:53:51.871Z,5.59
2018-12-31T03:56:22.651Z,5.60
2018-12-31T03:58:53.437Z,5.61
2018-12-31T04:01:24.303Z,5.58
2018-12-31T04:03:55.081Z,5.55
2018-12-31T04:06:26.125Z,5.58
2018-12-31T04:08:56.901Z,5.54
2018-12-31T04:11:27.936Z,5.51
2018-12-31T04:13:58.983Z,5.61
2018-12-31T04:16:29.997Z,5.65
2018-12-31T04:19:00.829Z,5.64
2018-12-31T04:21:31.868Z,5.64
2018-12-31T04:24:02.640Z,5.65
2018-12-31T04:26:33.662Z,5.64
2018-12-31T04:29:04.946Z,5.64
2018-12-31T04:31:36.042Z,5.63
2018-12-31T04:34:07.037Z,5.61
2018-12-31T04:36:37.835Z,5.63
2018-12-31T04:39:08.710Z,5.58
2018-12-31T04:41:39.987Z,5.60
2018-12-31T04:44:11.058Z,5.71
2018-12-31T04:46:42.229Z,5.66
2018-12-31T04:49:13.036Z,5.66
2018-12-31T04:51:43.835Z,5.64
2018-12-31T04:54:14.923Z,5.64
2018-12-31T04:56:45.950Z,5.65
2018-12-31T04:59:17.114Z,5.69
2018-12-31T05:01:48.141Z,5.68
2018-12-31T05:04:19.155Z,5.66
2018-12-31T05:06:49.960Z,5.68
2018-12-31T05:09:20.735Z,5.67
2018-12-31T05:11:51.760Z,5.69
2018-12-31T05:14:22.774Z,5.76
2018-12-31T05:16:53.801Z,5.78
2018-12-31T05:19:24.663Z,5.81
2018-12-31T05:21:55.532Z,5.81
2018-12-31T05:24:26.636Z,5.79
2018-12-31T05:26:57.662Z,5.80
2018-12-31T05:29:28.926Z,5.72
2018-12-31T05:31:59.947Z,5.73
2018-12-31T05:34:30.954Z,5.78
2018-12-31T05:37:01.751Z,5.74
2018-12-31T05:39:32.805Z,5.73
2018-12-31T05:42:03.599Z,5.69
2018-12-31T05:44:34.848Z,5.72
2018-12-31T05:47:05.741Z,5.79
2018-12-31T05:49:36.755Z,5.83
2018-12-31T05:52:07.633Z,5.81
2018-12-31T05:54:38.651Z,5.76
2018-12-31T05:57:09.459Z,5.93
2018-12-31T05:59:40.465Z,5.81
2018-12-31T06:02:11.258Z,5.85
2018-12-31T06:04:42.288Z,5.88
2018-12-31T06:07:13.086Z,5.87
2018-12-31T06:09:43.961Z,5.93
2018-12-31T06:12:15.283Z,5.84
2018-12-31T06:17:50.296Z,5.87
2018-12-31T06:20:21.116Z,5.88
2018-12-31T06:23:12.748Z,5.95
2018-12-31T06:26:03.034Z,5.96
2018-12-31T06:28:34.123Z,5.88
2018-12-31T06:31:24.198Z,5.96
2018-12-31T06:33:54.983Z,6.01
2018-12-31T06:36:25.857Z,5.91
2018-12-31T06:38:56.948Z,5.99
2018-12-31T06:41:28.052Z,6.00
2018-12-31T06:43:59.127Z,5.96
2018-12-31T06:46:30.161Z,5.93
2018-12-31T06:49:00.935Z,6.02
2018-12-31T06:51:31.961Z,6.01
2018-12-31T06:54:02.747Z,6.02
2018-12-31T06:56:34.054Z,5.94
2018-12-31T06:59:05.060Z,5.90
2018-12-31T07:01:36.186Z,5.88
2018-12-31T07:04:07.203Z,5.89
2018-12-31T07:06:38.049Z,5.94
2018-12-31T07:09:08.894Z,5.94
2018-12-31T07:11:40.166Z,5.95
2018-12-31T07:14:11.168Z,5.93
2018-12-31T07:16:41.967Z,5.94
2018-12-31T07:19:12.992Z,6.04
2018-12-31T07:21:44.020Z,6.00
2018-12-31T07:24:15.023Z,6.00
2018-12-31T07:26:46.042Z,6.05
2018-12-31T07:29:17.071Z,6.02
2018-12-31T07:31:48.003Z,6.05
2018-12-31T07:34:19.199Z,6.02
2018-12-31T07:36:50.273Z,6.01
2018-12-31T07:39:21.342Z,5.98
2018-12-31T07:41:52.219Z,6.02
2018-12-31T07:44:23.287Z,6.02
2018-12-31T07:46:54.309Z,6.11
2018-12-31T07:49:25.318Z,6.06
2018-12-31T07:51:56.131Z,6.09
2018-12-31T07:54:27.241Z,6.00
2018-12-31T07:56:58.537Z,6.01
2018-12-31T07:59:29.310Z,6.04
2018-12-31T08:02:00.335Z,5.99
2018-12-31T08:04:31.355Z,5.96
2018-12-31T08:07:02.388Z,5.94
2018-12-31T08:09:33.399Z,5.95
2018-12-31T08:12:04.436Z,5.90
2018-12-31T08:14:35.215Z,5.92
2018-12-31T08:17:06.010Z,5.89
2018-12-31T08:19:37.024Z,5.88
2018-12-31T08:22:08.067Z,5.92
2018-12-31T08:24:38.852Z,5.89
2018-12-31T08:27:10.227Z,5.91
2018-12-31T08:29:41.016Z,5.92
2018-12-31T08:32:12.357Z,5.93
2018-12-31T08:34:43.184Z,5.92
2018-12-31T08:37:14.479Z,5.89
2018-12-31T08:39:45.486Z,5.89
2018-12-31T08:42:16.704Z,5.85
2018-12-31T08:44:47.776Z,5.89
2018-12-31T08:47:18.614Z,5.90
2018-12-31T08:49:49.474Z,5.94
2018-12-31T08:52:20.348Z,5.98
2018-12-31T08:54:51.135Z,5.95
2018-12-31T08:57:22.183Z,6.03
2018-12-31T08:59:53.928Z,5.93
2018-12-31T09:02:24.731Z,5.92
2018-12-31T09:04:55.514Z,5.94
2018-12-31T09:07:27.871Z,5.96
2018-12-31T09:09:58.898Z,5.95
2018-12-31T09:12:29.691Z,6.03
2018-12-31T09:15:00.556Z,6.00
2018-12-31T09:17:31.610Z,6.00
2018-12-31T09:20:02.392Z,6.02
2018-12-31T09:22:33.487Z,6.11
2018-12-31T09:25:04.477Z,6.05
2018-12-31T09:27:35.271Z,6.06
2018-12-31T09:30:06.516Z,6.11
2018-12-31T09:32:37.391Z,6.14
2018-12-31T09:35:08.247Z,6.11
2018-12-31T09:37:39.549Z,6.13
2018-12-31T09:40:10.349Z,6.12
2018-12-31T09:42:41.356Z,6.08
2018-12-31T09:45:12.375Z,6.21
2018-12-31T09:47:43.388Z,6.19
2018-12-31T09:50:14.488Z,6.22
2018-12-31T09:52:45.533Z,6.19
2018-12-31T09:55:16.315Z,6.28
2018-12-31T09:57:47.359Z,6.18
2018-12-31T10:00:18.403Z,6.27
2018-12-31T10:02:49.183Z,6.20
2018-12-31T10:05:19.976Z,6.17
2018-12-31T10:07:51.004Z,6.32
2018-12-31T10:10:22.356Z,6.26
2018-12-31T10:12:53.406Z,6.29
2018-12-31T10:15:24.678Z,6.28
2018-12-31T10:17:55.754Z,6.27
2018-12-31T10:20:26.772Z,6.27
2018-12-31T10:22:57.786Z,6.35
2018-12-31T10:25:28.582Z,6.42
2018-12-31T10:27:59.859Z,6.43
2018-12-31T10:30:31.366Z,6.42
2018-12-31T10:33:02.635Z,6.38
2018-12-31T10:35:33.726Z,6.42
2018-12-31T10:38:04.515Z,6.40
2018-12-31T10:40:35.308Z,6.37
2018-12-31T10:43:06.598Z,6.44
2018-12-31T10:45:37.638Z,6.45
2018-12-31T10:48:08.491Z,6.41
2018-12-31T10:50:39.287Z,6.43
2018-12-31T10:53:10.317Z,6.48
2018-12-31T10:55:41.125Z,6.50
2018-12-31T10:58:12.136Z,6.51
2018-12-31T11:00:42.925Z,6.58
2018-12-31T11:03:14.197Z,6.62
2018-12-31T11:05:45.637Z,6.64
2018-12-31T11:08:16.741Z,6.70
2018-12-31T11:10:47.767Z,6.73
2018-12-31T11:13:18.562Z,6.69
2018-12-31T11:15:49.586Z,6.74
2018-12-31T11:18:20.595Z,6.79
2018-12-31T11:20:51.436Z,6.66
2018-12-31T11:23:22.216Z,6.60
2018-12-31T11:25:53.310Z,6.61
2018-12-31T11:28:24.464Z,6.64
2018-12-31T11:30:55.737Z,6.73
2018-12-31T11:33:27.795Z,6.68
2018-12-31T11:35:58.822Z,6.74
2018-12-31T11:38:29.843Z,6.73
2018-12-31T11:41:00.638Z,6.72
2018-12-31T11:43:31.638Z,6.75
2018-12-31T11:46:02.440Z,6.78
2018-12-31T11:48:33.733Z,6.83
2018-12-31T11:51:04.759Z,6.83
2018-12-31T11:53:35.851Z,6.78
2018-12-31T11:56:06.651Z,6.81
2018-12-31T11:58:37.439Z,6.83
2018-12-31T12:01:08.315Z,6.79
2018-12-31T12:03:39.395Z,6.81
2018-12-31T12:09:25.712Z,6.90
2018-12-31T12:11:56.998Z,6.81
2018-12-31T12:14:28.512Z,6.82
2018-12-31T12:16:59.551Z,6.77
2018-12-31T12:19:30.334Z,6.85
2018-12-31T12:22:01.127Z,6.85
2018-12-31T12:24:32.130Z,6.86
2018-12-31T12:27:04.267Z,6.87
2018-12-31T12:29:35.552Z,6.98
2018-12-31T12:32:06.954Z,6.84
2018-12-31T12:34:37.730Z,6.99
2018-12-31T12:37:08.772Z,7.03
2018-12-31T12:39:40.097Z,7.07
2018-12-31T12:42:11.525Z,7.11
2018-12-31T12:44:42.538Z,7.08
2018-12-31T12:47:13.599Z,7.15
2018-12-31T12:49:45.107Z,7.20
2018-12-31T12:52:16.563Z,7.12
2018-12-31T12:54:47.631Z,7.10
2018-12-31T12:57:19.151Z,7.04
2018-12-31T13:00:27.159Z,6.92
2018-12-31T13:03:17.356Z,7.01
2018-12-31T13:05:48.625Z,7.06
2018-12-31T13:08:19.419Z,7.06
2018-12-31T13:11:02.505Z,7.04
2018-12-31T13:13:34.359Z,6.96
2018-12-31T13:16:07.147Z,6.98
2018-12-31T13:18:39.923Z,7.03
2018-12-31T13:24:58.697Z,7.17
2018-12-31T13:27:50.497Z,7.19
2018-12-31T13:30:22.087Z,7.27
2018-12-31T13:32:55.122Z,7.22
2018-12-31T13:35:26.131Z,7.17
2018-12-31T13:37:57.201Z,7.23
2018-12-31T13:40:28.418Z,7.27
2018-12-31T13:42:59.551Z,7.26
2018-12-31T13:48:52.551Z,7.31
2018-12-31T13:51:37.650Z,7.16
2018-12-31T13:54:09.509Z,7.23
2018-12-31T13:57:01.207Z,7.22
2018-12-31T14:00:13.080Z,7.25
2018-12-31T14:02:44.716Z,7.46
2018-12-31T14:05:16.584Z,7.31
2018-12-31T14:07:48.581Z,7.29
2018-12-31T14:10:20.054Z,7.29
2018-12-31T14:12:52.644Z,7.35
2018-12-31T14:15:24.580Z,7.33
2018-12-31T14:17:55.693Z,7.26
2018-12-31T14:20:27.073Z,7.31
2018-12-31T14:22:57.881Z,7.26
2018-12-31T14:25:29.178Z,7.28
2018-12-31T14:28:00.049Z,7.30
2018-12-31T14:30:31.205Z,7.29
2018-12-31T14:33:02.003Z,7.35
2018-12-31T14:35:32.773Z,7.31
2018-12-31T14:38:04.733Z,7.27
2018-12-31T14:40:35.753Z,7.35
2018-12-31T14:43:06.763Z,7.32
2018-12-31T14:45:37.765Z,7.31
2018-12-31T14:48:08.855Z,7.41
2018-12-31T14:50:39.635Z,7.34
2018-12-31T14:53:10.679Z,7.33
2018-12-31T14:55:41.977Z,7.31
2018-12-31T14:58:13.076Z,7.32
2018-12-31T15:00:43.823Z,7.29
2018-12-31T15:03:14.663Z,7.48
2018-12-31T15:05:45.679Z,7.43
2018-12-31T15:08:16.700Z,7.33
2018-12-31T15:10:47.499Z,7.30
2018-12-31T15:13:18.297Z,7.46
2018-12-31T15:15:49.146Z,7.34
2018-12-31T15:18:20.627Z,7.27
2018-12-31T15:20:51.651Z,7.30
2018-12-31T15:23:22.670Z,7.36
2018-12-31T15:25:53.816Z,7.33
2018-12-31T15:28:24.988Z,7.31
2018-12-31T15:30:56.203Z,7.28
2018-12-31T15:33:28.218Z,7.33
2018-12-31T15:35:59.353Z,7.22
2018-12-31T15:38:30.311Z,7.25
2018-12-31T15:41:01.318Z,7.31
2018-12-31T15:43:32.159Z,7.31
2018-12-31T15:46:03.170Z,7.32
2018-12-31T15:48:33.962Z,7.28
2018-12-31T15:51:05.145Z,7.26
2018-12-31T15:53:36.721Z,7.32
2018-12-31T15:56:08.040Z,7.34
2018-12-31T15:58:39.054Z,7.22
2018-12-31T16:01:10.315Z,7.24
2018-12-31T16:03:41.504Z,7.19
2018-12-31T16:06:12.524Z,7.19
2018-12-31T16:08:43.572Z,7.15
2018-12-31T16:11:14.578Z,7.09
2018-12-31T16:13:45.704Z,7.08
2018-12-31T16:16:16.718Z,7.06
2018-12-31T16:18:47.747Z,7.05
2018-12-31T16:21:18.838Z,7.09
2018-12-31T16:23:50.115Z,7.04
2018-12-31T16:26:21.355Z,7.11
2018-12-31T16:28:53.314Z,7.06
2018-12-31T16:31:24.097Z,6.94
2018-12-31T16:33:55.213Z,6.97
2018-12-31T16:36:26.224Z,6.94
2018-12-31T16:38:57.020Z,6.94
2018-12-31T16:41:28.038Z,6.94
2018-12-31T16:43:58.851Z,6.93
2018-12-31T16:46:29.725Z,6.92
2018-12-31T16:49:00.803Z,6.92
2018-12-31T16:51:31.586Z,7.00
2018-12-31T16:54:02.681Z,6.99
2018-12-31T16:56:33.531Z,6.96
2018-12-31T16:59:04.907Z,6.94
2018-12-31T17:01:35.970Z,6.91
2018-12-31T17:04:07.736Z,6.92
2018-12-31T17:06:38.586Z,6.87
2018-12-31T17:09:09.493Z,6.88
2018-12-31T17:11:40.266Z,6.91
2018-12-31T17:14:11.351Z,6.84
2018-12-31T17:16:42.476Z,6.83
2018-12-31T17:19:13.779Z,6.88
2018-12-31T17:21:45.043Z,6.89
2018-12-31T17:24:15.905Z,6.77
2018-12-31T17:26:46.914Z,6.82
2018-12-31T17:29:17.830Z,6.83
2018-12-31T17:31:48.859Z,6.78
2018-12-31T17:34:20.057Z,6.76
2018-12-31T17:36:51.067Z,6.84
2018-12-31T17:39:22.158Z,6.81
2018-12-31T17:41:53.160Z,6.83
2018-12-31T17:44:25.037Z,6.84
2018-12-31T17:46:56.054Z,6.84
2018-12-31T17:49:27.359Z,6.95
2018-12-31T17:51:59.333Z,6.87
2018-12-31T17:54:30.370Z,6.90
2018-12-31T17:57:01.306Z,6.92
2018-12-31T17:59:32.398Z,6.90
2018-12-31T18:02:03.397Z,6.95
2018-12-31T18:04:34.275Z,6.88
2018-12-31T18:07:05.394Z,7.00
2018-12-31T18:09:36.708Z,7.09
2018-12-31T18:12:07.783Z,6.96
2018-12-31T18:14:39.132Z,6.96
2018-12-31T18:17:10.583Z,6.94
2018-12-31T18:22:22.132Z,7.01
2018-12-31T18:24:53.174Z,7.01
2018-12-31T18:27:23.974Z,6.97
2018-12-31T18:29:54.779Z,6.99
2018-12-31T18:32:25.789Z,7.05
2018-12-31T18:34:57.074Z,6.95
2018-12-31T18:37:28.229Z,6.94
2018-12-31T18:39:59.274Z,6.94
2018-12-31T18:42:30.042Z,6.91
2018-12-31T18:45:00.842Z,6.94
2018-12-31T18:47:31.939Z,6.96
2018-12-31T18:50:02.987Z,6.98
2018-12-31T18:52:33.770Z,6.96
2018-12-31T18:55:04.722Z,6.93
2018-12-31T18:57:35.731Z,6.90
2018-12-31T19:00:07.193Z,6.97
2018-12-31T19:02:38.550Z,6.91
2018-12-31T19:05:11.225Z,6.87
2018-12-31T19:07:42.361Z,6.86
2018-12-31T19:10:13.386Z,6.93
2018-12-31T19:12:44.169Z,6.90
2018-12-31T19:15:15.011Z,6.99
2018-12-31T19:17:45.804Z,7.04
2018-12-31T19:20:16.596Z,7.01
2018-12-31T19:22:47.687Z,6.97
2018-12-31T19:25:18.728Z,6.97
2018-12-31T19:27:50.021Z,6.97
2018-12-31T19:30:20.809Z,6.95
2018-12-31T19:32:51.591Z,6.83
2018-12-31T19:35:22.460Z,6.90
2018-12-31T19:37:53.242Z,6.90
2018-12-31T19:40:24.038Z,6.91
2018-12-31T19:42:55.296Z,6.84
2018-12-31T19:45:26.535Z,6.90
2018-12-31T19:47:57.415Z,6.85
2018-12-31T19:50:28.445Z,6.83
2018-12-31T19:52:59.535Z,6.86
2018-12-31T19:55:30.555Z,6.94
2018-12-31T19:58:01.410Z,6.88
2018-12-31T20:00:33.501Z,6.96
2018-12-31T20:03:04.836Z,6.89
2018-12-31T20:05:35.890Z,6.90
2018-12-31T20:08:06.988Z,6.87
2018-12-31T20:10:38.335Z,6.89
2018-12-31T20:13:09.124Z,6.98
2018-12-31T20:15:39.995Z,6.84
2018-12-31T20:18:12.735Z,6.98
2018-12-31T20:20:43.839Z,6.92
2018-12-31T20:23:14.846Z,7.03
2018-12-31T20:25:45.725Z,6.95
2018-12-31T20:28:16.756Z,6.93
2018-12-31T20:30:47.867Z,6.83
2018-12-31T20:33:19.015Z,6.89
2018-12-31T20:35:49.826Z,6.90
2018-12-31T20:38:21.162Z,6.93
2018-12-31T20:40:52.190Z,6.95
2018-12-31T20:43:22.983Z,6.89
2018-12-31T20:45:54.180Z,6.87
2018-12-31T20:48:25.370Z,6.82
2018-12-31T20:50:56.251Z,6.85
2018-12-31T20:53:27.335Z,6.82
2018-12-31T20:55:58.134Z,6.86
2018-12-31T20:58:29.226Z,6.88
2018-12-31T21:01:00.378Z,6.85
2018-12-31T21:03:31.730Z,6.79
2018-12-31T21:06:02.867Z,6.72
2018-12-31T21:08:33.818Z,6.79
2018-12-31T21:11:04.770Z,6.81
2018-12-31T21:13:35.883Z,6.83
2018-12-31T21:16:06.764Z,6.92
2018-12-31T21:18:38.178Z,6.83
2018-12-31T21:21:09.491Z,6.83
2018-12-31T21:23:41.336Z,6.82
2018-12-31T21:26:12.644Z,6.79
2018-12-31T21:28:43.427Z,6.84
2018-12-31T21:31:14.460Z,6.82
2018-12-31T21:33:45.458Z,6.92
2018-12-31T21:36:16.330Z,6.82
2018-12-31T21:38:47.179Z,6.89
2018-12-31T21:41:18.238Z,6.83
2018-12-31T21:43:49.337Z,6.79
2018-12-31T21:46:20.629Z,6.84
2018-12-31T21:48:51.719Z,6.89
2018-12-31T21:51:22.719Z,6.88
2018-12-31T21:53:53.492Z,6.86
2018-12-31T21:56:24.698Z,7.03
2018-12-31T21:58:55.812Z,6.90
2018-12-31T22:01:26.960Z,6.90
2018-12-31T22:03:57.755Z,6.87
2018-12-31T22:06:28.632Z,6.88
2018-12-31T22:09:00.050Z,6.92
2018-12-31T22:11:31.067Z,6.91
2018-12-31T22:14:02.021Z,6.89
2018-12-31T22:16:32.984Z,6.92
2018-12-31T22:19:03.851Z,6.90
2018-12-31T22:21:34.658Z,6.85
2018-12-31T22:24:05.766Z,6.88
2018-12-31T22:26:36.639Z,6.82
2018-12-31T22:29:07.593Z,6.87
2018-12-31T22:31:38.411Z,6.93
2018-12-31T22:34:09.514Z,6.92
2018-12-31T22:36:41.071Z,6.87
2018-12-31T22:39:12.344Z,6.87
2018-12-31T22:41:43.903Z,6.85
2018-12-31T22:44:15.179Z,6.94
2018-12-31T22:46:46.292Z,6.96
2018-12-31T22:49:17.087Z,6.98
2018-12-31T22:51:48.382Z,6.92
2018-12-31T22:54:19.186Z,6.85
2018-12-31T22:56:50.470Z,6.85
2018-12-31T22:59:21.743Z,6.86
2018-12-31T23:01:52.922Z,6.97
2018-12-31T23:04:23.759Z,6.94
2018-12-31T23:06:58.543Z,6.85
2018-12-31T23:09:29.730Z,6.84
2018-12-31T23:12:00.826Z,6.85
2018-12-31T23:18:13.584Z,6.73
2018-12-31T23:21:10.986Z,6.76
2018-12-31T23:23:43.707Z,6.73
2018-12-31T23:33:09.113Z,6.77
2018-12-31T23:35:40.184Z,6.81
2018-12-31T23:38:30.350Z,6.83
2018-12-31T23:45:17.760Z,6.83
2018-12-31T23:48:06.297Z,6.82
2018-12-31T23:54:08.699Z,6.72
2018-12-31T23:56:39.493Z,6.83
2018-12-31T23:59:10.830Z,6.75
